Time;durP1;ratioP1;P1;durP2;ratioP2;P2;SDS_P1;SDS_P2;PMS_P1;PMS_P2;Temp;Humidity;BMP_temperature;BMP_pressure;BME280_temperature;BME280_humidity;BME280_pressure;Samples;Min_cycle;Max_cycle;Signal;HPM_P1;HPM_P2
2023/03/13 00:01:38;;;;;;;24.27;6.23;;;10.10;1.00;;;;;;4949965;29;20191;-65
2023/03/13 00:04:06;;;;;;;22.13;5.13;;;10.10;1.00;;;;;;4944154;29;20584;-64
2023/03/13 00:06:35;;;;;;;16.73;4.20;;;10.10;1.00;;;;;;4948905;29;20277;-64
2023/03/13 00:09:05;;;;;;;21.23;5.17;;;10.10;1.00;;;;;;4942232;29;20302;-65
2023/03/13 00:11:32;;;;;;;15.40;4.30;;;10.20;1.00;;;;;;4949008;29;20202;-66
2023/03/13 00:14:02;;;;;;;22.30;5.07;;;10.20;1.00;;;;;;4948998;28;20219;-65
2023/03/13 00:16:30;;;;;;;16.60;4.67;;;10.20;1.00;;;;;;4949785;29;20199;-64
2023/03/13 00:18:58;;;;;;;16.97;4.90;;;10.20;1.00;;;;;;4950272;28;20249;-65
2023/03/13 00:21:28;;;;;;;19.07;5.07;;;10.20;1.00;;;;;;4965341;28;20651;-66
2023/03/13 00:23:56;;;;;;;18.20;4.03;;;10.20;1.00;;;;;;4948725;28;20390;-65
2023/03/13 00:26:25;;;;;;;22.60;5.17;;;10.20;1.00;;;;;;4951001;29;20625;-65
2023/03/13 00:28:53;;;;;;;17.13;4.33;;;10.20;1.00;;;;;;4943152;28;20725;-66
2023/03/13 00:31:28;;;;;;;20.10;4.30;;;10.20;1.00;;;;;;4949789;28;20346;-65
2023/03/13 00:34:02;;;;;;;16.53;4.43;;;10.20;1.00;;;;;;4926026;29;20250;-65
2023/03/13 00:36:32;;;;;;;18.57;4.63;;;10.30;1.00;;;;;;4948102;29;20191;-65
2023/03/13 00:39:02;;;;;;;17.30;4.27;;;10.40;1.00;;;;;;4951441;28;20215;-65
2023/03/13 00:41:31;;;;;;;16.00;4.27;;;10.40;1.00;;;;;;4926387;29;20230;-65
2023/03/13 00:43:58;;;;;;;17.83;4.37;;;10.50;1.00;;;;;;4949655;29;20203;-65
2023/03/13 00:46:27;;;;;;;21.00;4.40;;;10.40;1.00;;;;;;4942833;28;20203;-66
2023/03/13 00:48:54;;;;;;;13.97;4.27;;;10.40;1.00;;;;;;4951463;29;20202;-65
2023/03/13 00:51:23;;;;;;;21.87;8.20;;;10.50;1.00;;;;;;4952194;29;20697;-66
2023/03/13 00:53:50;;;;;;;20.97;4.47;;;10.50;1.00;;;;;;4965398;28;20317;-67
2023/03/13 00:56:19;;;;;;;22.73;5.70;;;10.50;1.00;;;;;;4934871;29;20698;-65
2023/03/13 00:58:48;;;;;;;19.10;4.00;;;10.60;1.00;;;;;;4942670;29;20706;-66
2023/03/13 01:01:26;;;;;;;14.57;3.43;;;10.60;1.00;;;;;;4965855;28;20236;-67
2023/03/13 01:04:02;;;;;;;21.00;4.40;;;10.60;1.00;;;;;;4965965;28;20233;-65
2023/03/13 01:06:31;;;;;;;18.07;4.30;;;10.60;1.00;;;;;;4966712;28;20207;-65
2023/03/13 01:09:02;;;;;;;16.30;3.80;;;10.60;1.00;;;;;;4964619;28;20203;-68
2023/03/13 01:11:33;;;;;;;17.07;4.07;;;10.70;1.00;;;;;;4964769;28;20290;-65
2023/03/13 01:14:03;;;;;;;20.40;5.23;;;10.60;1.00;;;;;;4966430;28;20231;-66
2023/03/13 01:16:32;;;;;;;16.03;3.83;;;10.50;1.00;;;;;;4966406;28;20199;-66
2023/03/13 01:19:01;;;;;;;17.97;3.87;;;10.60;1.00;;;;;;4965811;28;20214;-65
2023/03/13 01:21:29;;;;;;;17.67;3.93;;;10.50;1.00;;;;;;4965697;28;20908;-65
2023/03/13 01:23:56;;;;;;;16.73;3.87;;;10.40;1.00;;;;;;4941584;29;20628;-66
2023/03/13 01:26:25;;;;;;;15.23;3.70;;;10.40;1.00;;;;;;4950146;29;20211;-65
2023/03/13 01:28:53;;;;;;;17.77;4.40;;;10.30;1.00;;;;;;4949913;29;20285;-65
2023/03/13 01:31:32;;;;;;;16.33;4.17;;;10.30;1.00;;;;;;4965604;28;20237;-65
2023/03/13 01:34:02;;;;;;;25.80;5.13;;;10.30;1.00;;;;;;4947311;28;20210;-65
2023/03/13 01:36:30;;;;;;;15.30;3.83;;;10.30;1.00;;;;;;4949979;28;20203;-65
2023/03/13 01:38:59;;;;;;;15.87;3.97;;;10.40;1.00;;;;;;4950634;29;20203;-65
2023/03/13 01:41:28;;;;;;;22.27;4.37;;;10.50;1.00;;;;;;4964107;28;20195;-65
2023/03/13 01:43:56;;;;;;;21.33;3.87;;;10.50;1.00;;;;;;4925795;29;20289;-65
2023/03/13 01:46:28;;;;;;;15.73;4.33;;;10.40;1.00;;;;;;4949691;28;20694;-65
2023/03/13 01:49:17;;;;;;;15.80;3.43;;;10.40;1.00;;;;;;4947250;28;20214;-65
2023/03/13 01:52:15;;;;;;;17.27;3.70;;;10.40;1.00;;;;;;4960326;28;20607;-65
2023/03/13 01:55:08;;;;;;;16.53;4.03;;;10.30;1.00;;;;;;4963089;28;20257;-65
2023/03/13 01:57:49;;;;;;;18.53;4.33;;;10.30;1.00;;;;;;4940679;29;20303;-65
2023/03/13 02:00:25;;;;;;;18.40;4.13;;;10.40;1.00;;;;;;4964724;28;20241;-66
2023/03/13 02:02:57;;;;;;;14.40;3.80;;;10.40;1.00;;;;;;4941252;29;20213;-65
2023/03/13 02:05:27;;;;;;;12.03;3.73;;;10.40;1.00;;;;;;4948470;28;20239;-67
2023/03/13 02:08:09;;;;;;;18.47;4.10;;;10.40;1.00;;;;;;4963169;28;20752;-65
2023/03/13 02:10:43;;;;;;;15.40;4.10;;;10.40;1.00;;;;;;4948542;29;20230;-65
2023/03/13 02:13:14;;;;;;;12.57;3.27;;;10.50;1.00;;;;;;4963667;28;20551;-65
2023/03/13 02:15:41;;;;;;;14.83;3.87;;;10.50;1.00;;;;;;4963708;28;20478;-65
2023/03/13 02:18:08;;;;;;;19.67;4.00;;;10.40;1.00;;;;;;4962577;28;20202;-64
2023/03/13 02:20:38;;;;;;;16.03;3.43;;;10.30;1.00;;;;;;4945561;28;20270;-64
2023/03/13 02:23:07;;;;;;;21.57;4.07;;;10.20;25.40;;;;;;4947542;29;20265;-64
2023/03/13 02:25:47;;;;;;;15.20;4.43;;;10.20;52.10;;;;;;4949192;28;20506;-65
2023/03/13 02:28:19;;;;;;;19.47;4.23;;;10.20;53.30;;;;;;4963735;28;20297;-66
2023/03/13 02:30:49;;;;;;;24.83;5.33;;;10.20;37.60;;;;;;4932664;29;20237;-65
2023/03/13 02:33:18;;;;;;;17.90;4.00;;;10.30;43.10;;;;;;4939850;28;20199;-66
2023/03/13 02:35:47;;;;;;;18.40;4.10;;;10.20;99.90;;;;;;4962356;28;20198;-66
2023/03/13 02:38:26;;;;;;;20.17;4.33;;;10.20;99.90;;;;;;4947432;28;20199;-68
2023/03/13 02:40:55;;;;;;;17.10;4.37;;;10.10;99.90;;;;;;4940295;28;20290;-66
2023/03/13 02:43:28;;;;;;;15.10;4.03;;;10.10;99.90;;;;;;4947443;29;20267;-67
2023/03/13 02:46:14;;;;;;;14.17;3.97;;;10.00;99.90;;;;;;4941264;28;20606;-65
2023/03/13 02:48:45;;;;;;;12.50;4.03;;;10.00;99.90;;;;;;4963559;28;20195;-65
2023/03/13 02:51:35;;;;;;;14.87;4.30;;;10.00;99.90;;;;;;4947914;29;20257;-64
2023/03/13 02:54:09;;;;;;;17.13;3.70;;;10.10;99.90;;;;;;4947002;29;20225;-69
2023/03/13 02:56:39;;;;;;;14.43;4.40;;;10.10;99.90;;;;;;4926091;29;20637;-67
2023/03/13 02:59:07;;;;;;;17.63;4.10;;;10.00;1.00;;;;;;4940612;28;20206;-64
2023/03/13 03:01:38;;;;;;;14.43;3.60;;;10.00;1.00;;;;;;4948004;28;20667;-66
2023/03/13 03:04:05;;;;;;;18.13;3.90;;;10.00;1.00;;;;;;4948287;28;20289;-65
2023/03/13 03:06:32;;;;;;;14.90;4.50;;;10.00;1.00;;;;;;4962048;28;20191;-66
2023/03/13 03:09:02;;;;;;;11.70;3.40;;;9.90;1.00;;;;;;4942966;28;20359;-66
2023/03/13 03:11:33;;;;;;;14.97;3.83;;;9.90;1.00;;;;;;4932111;29;20227;-70
2023/03/13 03:14:05;;;;;;;14.80;3.20;;;9.90;1.00;;;;;;4948710;29;20533;-70
2023/03/13 03:16:37;;;;;;;8.93;3.30;;;9.90;1.00;;;;;;4948434;28;20206;-72
2023/03/13 03:19:08;;;;;;;17.13;3.63;;;9.90;1.00;;;;;;4948610;29;20560;-69
2023/03/13 03:21:35;;;;;;;15.33;3.30;;;9.90;1.00;;;;;;4949258;29;20218;-68
2023/03/13 03:24:02;;;;;;;10.13;3.47;;;9.90;1.00;;;;;;4947741;29;20207;-69
2023/03/13 03:26:29;;;;;;;12.13;2.67;;;10.00;1.00;;;;;;4950427;29;20281;-68
2023/03/13 03:28:56;;;;;;;11.63;4.33;;;10.00;1.00;;;;;;4949079;29;20225;-69
2023/03/13 03:31:24;;;;;;;12.30;3.30;;;10.00;1.00;;;;;;4949989;28;20207;-69
2023/03/13 03:33:51;;;;;;;11.07;3.00;;;10.00;1.00;;;;;;4952051;29;20225;-69
2023/03/13 03:36:21;;;;;;;8.03;3.30;;;10.00;1.00;;;;;;4950874;29;20702;-69
2023/03/13 03:38:49;;;;;;;7.30;2.60;;;10.10;1.00;;;;;;4965854;28;20206;-69
2023/03/13 03:41:19;;;;;;;12.43;3.03;;;10.10;1.00;;;;;;4951250;29;20215;-69
2023/03/13 03:43:46;;;;;;;9.17;2.40;;;10.10;1.00;;;;;;4951869;29;20226;-68
2023/03/13 03:46:16;;;;;;;9.73;2.43;;;10.10;1.00;;;;;;4952781;29;21016;-67
2023/03/13 03:48:44;;;;;;;8.17;2.20;;;10.10;1.00;;;;;;4952300;29;20301;-67
2023/03/13 03:51:12;;;;;;;5.77;2.30;;;10.10;1.00;;;;;;4951682;28;20616;-67
2023/03/13 03:53:41;;;;;;;7.73;1.70;;;10.20;1.00;;;;;;4967270;28;20203;-66
2023/03/13 03:56:08;;;;;;;10.37;2.00;;;10.30;1.00;;;;;;4949824;28;20308;-66
2023/03/13 03:58:40;;;;;;;6.93;1.90;;;10.30;1.00;;;;;;4967496;28;20238;-66
2023/03/13 04:01:22;;;;;;;7.97;2.20;;;10.20;1.00;;;;;;4952232;29;20207;-66
2023/03/13 04:03:49;;;;;;;9.57;1.97;;;10.30;1.00;;;;;;4950980;29;20354;-66
2023/03/13 04:06:17;;;;;;;4.67;1.67;;;10.20;1.00;;;;;;4947634;28;20277;-66
2023/03/13 04:08:45;;;;;;;5.70;1.70;;;10.30;1.00;;;;;;4947693;28;20554;-67
2023/03/13 04:11:15;;;;;;;4.73;1.70;;;10.30;1.00;;;;;;4950763;29;20203;-67
2023/03/13 04:13:47;;;;;;;4.63;2.37;;;10.40;1.00;;;;;;4967111;28;20663;-64
2023/03/13 04:16:14;;;;;;;7.50;2.40;;;10.40;1.00;;;;;;4951424;29;20214;-67
2023/03/13 04:18:42;;;;;;;4.33;2.17;;;10.40;1.00;;;;;;4950729;29;20268;-66
2023/03/13 04:21:09;;;;;;;4.97;1.70;;;10.50;1.00;;;;;;4967565;28;20670;-66
2023/03/13 04:23:42;;;;;;;8.27;2.63;;;10.50;1.00;;;;;;4950546;29;20713;-67
2023/03/13 04:26:09;;;;;;;4.50;2.13;;;10.50;1.00;;;;;;4951741;28;20203;-67
2023/03/13 04:28:38;;;;;;;5.70;2.73;;;10.60;1.00;;;;;;4950537;29;20203;-67
2023/03/13 04:31:06;;;;;;;6.87;2.17;;;10.60;1.00;;;;;;4950322;29;20215;-66
2023/03/13 04:34:01;;;;;;;5.00;2.10;;;10.60;1.00;;;;;;4960078;28;20199;-67
2023/03/13 04:36:50;;;;;;;5.47;2.07;;;10.60;1.00;;;;;;4944515;28;20199;-68
2023/03/13 04:39:40;;;;;;;7.07;2.80;;;10.70;1.00;;;;;;4949140;28;20679;-66
2023/03/13 04:42:33;;;;;;;5.83;3.33;;;10.80;1.00;;;;;;4959318;28;20213;-66
2023/03/13 04:45:23;;;;;;;5.17;2.50;;;10.90;99.90;;;;;;4943060;29;20237;-66
2023/03/13 04:48:02;;;;;;;5.90;2.33;;;11.00;99.90;;;;;;4948578;28;20217;-66
2023/03/13 04:50:44;;;;;;;4.43;2.57;;;11.00;99.90;;;;;;4964338;28;20290;-66
2023/03/13 04:53:46;;;;;;;6.70;3.10;;;11.10;99.90;;;;;;4945614;28;20234;-66
2023/03/13 04:56:24;;;;;;;5.63;2.83;;;11.10;99.90;;;;;;4950096;29;20207;-66
2023/03/13 04:59:27;;;;;;;6.07;2.97;;;11.10;99.90;;;;;;4950083;28;20214;-66
2023/03/13 05:02:00;;;;;;;4.37;2.90;;;11.10;99.90;;;;;;4948137;28;20659;-68
2023/03/13 05:04:52;;;;;;;3.10;1.53;;;11.20;99.90;;;;;;4962516;28;20309;-66
2023/03/13 05:07:38;;;;;;;3.77;2.33;;;11.20;99.90;;;;;;4948002;28;20194;-66
2023/03/13 05:10:27;;;;;;;6.50;2.33;;;11.20;99.90;;;;;;4949509;28;20199;-66
2023/03/13 05:13:23;;;;;;;7.47;3.27;;;11.10;99.90;;;;;;4948277;28;20646;-66
2023/03/13 05:16:29;;;;;;;5.83;2.03;;;11.10;99.90;;;;;;4927074;29;20735;-67
2023/03/13 05:19:08;;;;;;;9.07;4.90;;;11.10;99.90;;;;;;4920662;29;20203;-66
2023/03/13 05:21:59;;;;;;;3.63;1.83;;;11.10;1.00;;;;;;4950670;28;20325;-67
2023/03/13 05:24:44;;;;;;;8.93;4.30;;;11.10;1.00;;;;;;4947667;28;20205;-66
2023/03/13 05:27:33;;;;;;;8.23;2.70;;;11.10;1.00;;;;;;4948742;28;20202;-67
2023/03/13 05:30:21;;;;;;;5.70;3.13;;;11.00;1.00;;;;;;4947703;28;20735;-66
2023/03/13 05:33:13;;;;;;;10.20;6.07;;;11.00;1.00;;;;;;4948026;28;20305;-66
2023/03/13 05:35:48;;;;;;;8.80;5.67;;;10.90;1.00;;;;;;4949010;28;20226;-67
2023/03/13 05:38:42;;;;;;;7.60;4.13;;;11.00;1.00;;;;;;4956688;28;20207;-66
2023/03/13 05:41:27;;;;;;;4.63;2.47;;;11.00;1.00;;;;;;4948145;28;20610;-66
2023/03/13 05:44:12;;;;;;;5.33;3.43;;;11.10;1.00;;;;;;4946933;28;20222;-66
2023/03/13 05:46:58;;;;;;;6.60;2.97;;;11.10;1.00;;;;;;4946555;28;20277;-66
2023/03/13 05:49:45;;;;;;;5.87;3.83;;;11.20;1.00;;;;;;4937902;29;20262;-66
2023/03/13 05:52:51;;;;;;;5.20;3.17;;;11.20;1.00;;;;;;4952475;28;20210;-65
2023/03/13 05:55:50;;;;;;;5.27;2.77;;;11.20;1.00;;;;;;4948305;28;20207;-65
2023/03/13 05:58:36;;;;;;;3.53;2.10;;;11.20;1.00;;;;;;4948335;28;20206;-66
2023/03/13 06:01:14;;;;;;;5.10;2.70;;;11.20;1.00;;;;;;4946757;29;20206;-66
2023/03/13 06:03:41;;;;;;;2.90;2.53;;;11.20;1.00;;;;;;4947144;28;20249;-65
2023/03/13 06:06:10;;;;;;;2.73;2.03;;;11.30;1.00;;;;;;4962180;28;20215;-66
2023/03/13 06:08:43;;;;;;;4.73;2.50;;;11.30;1.00;;;;;;4944730;28;20238;-65
2023/03/13 06:11:10;;;;;;;3.43;2.07;;;11.30;1.00;;;;;;4946636;28;20671;-66
2023/03/13 06:13:37;;;;;;;4.93;2.20;;;11.20;1.00;;;;;;4946286;28;20266;-65
2023/03/13 06:16:15;;;;;;;4.27;2.40;;;11.20;1.00;;;;;;4947642;28;20222;-65
2023/03/13 06:18:47;;;;;;;5.57;3.00;;;11.20;9.80;;;;;;4946820;29;20324;-65
2023/03/13 06:21:14;;;;;;;6.27;3.00;;;11.20;75.80;;;;;;4949339;29;20742;-65
2023/03/13 06:23:41;;;;;;;4.50;3.43;;;11.20;99.90;;;;;;4946775;29;20294;-65
2023/03/13 06:26:08;;;;;;;3.83;3.50;;;11.20;99.90;;;;;;4948949;28;20225;-67
2023/03/13 06:28:35;;;;;;;5.27;3.40;;;11.10;1.00;;;;;;4940160;28;20227;-68
2023/03/13 06:31:03;;;;;;;6.13;3.63;;;11.20;1.00;;;;;;4962617;28;20686;-65
2023/03/13 06:33:30;;;;;;;5.60;4.27;;;11.20;1.00;;;;;;4947453;28;20265;-67
2023/03/13 06:36:00;;;;;;;6.13;4.00;;;11.20;1.00;;;;;;4947660;29;20252;-66
2023/03/13 06:38:28;;;;;;;5.00;3.87;;;11.20;1.00;;;;;;4926066;29;20301;-65
2023/03/13 06:40:55;;;;;;;4.83;3.60;;;11.30;1.00;;;;;;4946430;28;20203;-68
2023/03/13 06:43:22;;;;;;;4.17;3.63;;;11.30;1.00;;;;;;4946503;28;20261;-67
2023/03/13 06:45:49;;;;;;;5.93;4.00;;;11.30;1.00;;;;;;4963906;28;20230;-66
2023/03/13 06:48:17;;;;;;;6.87;4.10;;;11.40;99.90;;;;;;4946792;28;20560;-66
2023/03/13 06:50:44;;;;;;;3.87;3.40;;;11.50;99.90;;;;;;4948870;29;20750;-66
2023/03/13 06:53:17;;;;;;;5.53;3.77;;;11.60;23.30;;;;;;4944342;28;20739;-65
2023/03/13 06:55:44;;;;;;;4.93;3.50;;;11.60;1.00;;;;;;4948448;29;20253;-65
2023/03/13 06:58:12;;;;;;;3.37;3.07;;;11.60;1.00;;;;;;4946692;28;20285;-65
2023/03/13 07:00:57;;;;;;;5.33;2.90;;;11.70;1.00;;;;;;4958776;28;20202;-65
2023/03/13 07:03:24;;;;;;;4.53;3.00;;;11.70;1.00;;;;;;4944860;28;20589;-64
2023/03/13 07:05:58;;;;;;;3.97;3.00;;;11.80;1.00;;;;;;4961436;28;20663;-66
2023/03/13 07:08:26;;;;;;;3.40;2.57;;;11.80;1.00;;;;;;4951183;28;20838;-65
2023/03/13 07:10:57;;;;;;;4.47;3.03;;;11.90;1.00;;;;;;4967843;28;20210;-65
2023/03/13 07:13:24;;;;;;;6.23;2.80;;;11.90;1.00;;;;;;4953395;29;20238;-64
2023/03/13 07:15:54;;;;;;;3.77;2.07;;;12.00;99.90;;;;;;4951242;29;20250;-65
2023/03/13 07:18:22;;;;;;;3.40;2.33;;;12.10;99.90;;;;;;4949979;29;20541;-65
2023/03/13 07:20:57;;;;;;;3.63;2.40;;;12.20;99.90;;;;;;4943621;28;20281;-65
2023/03/13 07:23:26;;;;;;;4.80;2.60;;;12.30;99.90;;;;;;4962198;28;20199;-67
2023/03/13 07:25:59;;;;;;;2.93;2.63;;;12.30;99.90;;;;;;4964485;28;20703;-65
2023/03/13 07:28:27;;;;;;;2.37;1.90;;;12.30;99.90;;;;;;4963381;28;20659;-65
2023/03/13 07:30:54;;;;;;;2.43;2.20;;;12.50;99.90;;;;;;4951542;28;20836;-66
2023/03/13 07:33:21;;;;;;;2.87;1.80;;;12.40;99.90;;;;;;4963156;28;20267;-65
2023/03/13 07:35:52;;;;;;;2.43;1.90;;;12.60;99.90;;;;;;4948634;28;20622;-64
2023/03/13 07:38:19;;;;;;;2.27;1.60;;;12.60;99.90;;;;;;4965511;28;20286;-67
2023/03/13 07:40:51;;;;;;;4.40;2.17;;;12.70;99.90;;;;;;4965997;28;20203;-65
2023/03/13 07:43:18;;;;;;;4.10;1.90;;;12.70;99.90;;;;;;4933055;29;20679;-65
2023/03/13 07:45:55;;;;;;;6.73;1.83;;;12.70;99.90;;;;;;4951074;29;20257;-68
2023/03/13 07:48:24;;;;;;;4.27;2.00;;;12.80;99.90;;;;;;4933345;29;20207;-66
2023/03/13 07:50:53;;;;;;;5.93;1.93;;;12.80;99.90;;;;;;4949263;29;20322;-65
2023/03/13 07:53:21;;;;;;;3.07;1.70;;;12.90;98.20;;;;;;4965464;28;20191;-66
2023/03/13 07:55:59;;;;;;;3.10;1.97;;;13.00;77.00;;;;;;4949671;28;20230;-65
2023/03/13 07:58:29;;;;;;;4.73;2.03;;;13.10;58.00;;;;;;4964796;28;21094;-66
2023/03/13 08:00:56;;;;;;;4.10;2.00;;;13.20;30.80;;;;;;4949395;28;20215;-66
2023/03/13 08:03:24;;;;;;;4.07;1.90;;;13.20;27.20;;;;;;4944138;29;20297;-65
2023/03/13 08:06:06;;;;;;;4.00;1.97;;;13.20;16.60;;;;;;4962382;28;20647;-66
2023/03/13 08:08:33;;;;;;;3.47;2.10;;;13.40;1.00;;;;;;4942528;28;20298;-66
2023/03/13 08:11:04;;;;;;;4.03;1.93;;;13.50;1.00;;;;;;4965524;28;20677;-66
2023/03/13 08:13:32;;;;;;;5.13;1.90;;;13.60;1.00;;;;;;4950526;29;20195;-66
2023/03/13 08:16:05;;;;;;;3.57;1.90;;;13.70;1.00;;;;;;4965681;28;20230;-66
2023/03/13 08:18:34;;;;;;;3.58;1.83;;;13.70;1.00;;;;;;4943187;28;20663;-67
2023/03/13 08:21:08;;;;;;;3.00;2.03;;;13.70;1.00;;;;;;4963408;28;20211;-66
2023/03/13 08:23:36;;;;;;;2.83;2.00;;;13.70;1.00;;;;;;4941990;28;20286;-66
2023/03/13 08:26:09;;;;;;;5.00;2.30;;;13.70;1.00;;;;;;4948779;28;20196;-65
2023/03/13 08:28:37;;;;;;;6.20;2.20;;;13.70;1.00;;;;;;4948221;28;20246;-66
2023/03/13 08:31:14;;;;;;;5.07;2.00;;;13.70;1.00;;;;;;4965549;28;20625;-65
2023/03/13 08:33:43;;;;;;;4.30;2.00;;;13.80;1.00;;;;;;4945440;28;20198;-66
2023/03/13 08:36:22;;;;;;;3.83;2.10;;;13.70;1.00;;;;;;4964726;28;20215;-67
2023/03/13 08:38:50;;;;;;;4.73;1.77;;;13.80;1.00;;;;;;4948403;28;20226;-65
2023/03/13 08:41:23;;;;;;;3.80;1.77;;;13.80;1.00;;;;;;4949167;28;20222;-66
2023/03/13 08:43:54;;;;;;;3.83;2.13;;;13.80;1.00;;;;;;4961170;28;20655;-67
2023/03/13 08:46:23;;;;;;;8.43;2.50;;;13.80;1.00;;;;;;4941716;28;20594;-65
2023/03/13 08:48:51;;;;;;;6.03;2.33;;;13.80;1.00;;;;;;4944038;28;20237;-66
2023/03/13 08:51:20;;;;;;;4.27;2.63;;;13.90;1.00;;;;;;4949922;28;20199;-66
2023/03/13 08:53:47;;;;;;;6.97;2.57;;;14.00;1.00;;;;;;4950196;28;20191;-65
2023/03/13 08:56:16;;;;;;;5.47;2.10;;;13.90;1.00;;;;;;4965443;28;20218;-65
2023/03/13 08:58:47;;;;;;;4.90;2.37;;;14.00;1.00;;;;;;4947346;28;20198;-65
2023/03/13 09:01:14;;;;;;;4.47;2.70;;;14.00;1.00;;;;;;4950339;29;20737;-66
2023/03/13 09:03:42;;;;;;;6.17;2.50;;;13.90;1.00;;;;;;4946584;28;20230;-68
2023/03/13 09:06:10;;;;;;;5.57;2.07;;;14.00;1.00;;;;;;4948050;28;20203;-65
2023/03/13 09:08:38;;;;;;;8.37;2.30;;;14.00;1.00;;;;;;4947270;28;20612;-64
2023/03/13 09:11:08;;;;;;;6.93;2.20;;;14.00;1.00;;;;;;4943571;28;20203;-66
2023/03/13 09:13:39;;;;;;;3.27;2.07;;;14.00;1.00;;;;;;4947258;29;20219;-65
2023/03/13 09:16:09;;;;;;;5.93;2.20;;;14.00;1.00;;;;;;4947503;29;20211;-64
2023/03/13 09:18:36;;;;;;;4.33;1.83;;;14.10;1.00;;;;;;4937865;28;20191;-65
2023/03/13 09:21:07;;;;;;;6.57;2.50;;;14.20;1.00;;;;;;4937192;28;20205;-65
2023/03/13 09:23:35;;;;;;;6.13;2.30;;;14.20;1.00;;;;;;4948001;28;20207;-67
2023/03/13 09:26:02;;;;;;;5.53;2.40;;;14.20;1.00;;;;;;4956600;28;20191;-65
2023/03/13 09:28:30;;;;;;;7.40;2.50;;;14.10;1.00;;;;;;4946930;28;20583;-65
2023/03/13 09:31:09;;;;;;;5.80;3.30;;;14.00;1.00;;;;;;4948826;29;20627;-65
2023/03/13 09:33:38;;;;;;;5.23;2.43;;;14.10;1.00;;;;;;4952402;28;20233;-64
2023/03/13 09:36:05;;;;;;;6.47;2.00;;;14.20;1.00;;;;;;4947662;29;20679;-66
2023/03/13 09:38:32;;;;;;;7.28;2.15;;;15.30;1.00;;;;;;4948984;29;20199;-65
2023/03/13 09:41:36;;;;;;;4.63;3.45;;;16.40;1.00;;;;;;4947586;29;20199;-64
2023/03/13 09:44:11;;;;;;;6.07;2.60;;;16.30;1.00;;;;;;4963663;28;20214;-64
2023/03/13 09:47:11;;;;;;;3.92;2.70;;;15.70;1.00;;;;;;4949096;29;20554;-64
2023/03/13 09:49:47;;;;;;;7.75;2.28;;;16.20;1.00;;;;;;4961773;28;20249;-64
2023/03/13 09:52:24;;;;;;;5.38;2.35;;;16.70;1.00;;;;;;4945816;29;20199;-64
2023/03/13 09:55:02;;;;;;;5.93;2.42;;;17.10;1.00;;;;;;4947638;29;20265;-65
2023/03/13 09:57:42;;;;;;;7.50;2.83;;;17.00;1.00;;;;;;4962444;28;20248;-65
2023/03/13 10:00:32;;;;;;;7.13;3.13;;;17.00;1.00;;;;;;4945128;29;20249;-64
2023/03/13 10:03:11;;;;;;;5.75;2.50;;;17.10;1.00;;;;;;4946230;28;20679;-66
2023/03/13 10:05:46;;;;;;;5.13;2.25;;;16.40;1.00;;;;;;4962879;28;20225;-65
2023/03/13 10:08:25;;;;;;;7.32;2.50;;;16.70;1.00;;;;;;4940919;29;20757;-67
2023/03/13 10:11:20;;;;;;;5.22;2.20;;;16.70;1.00;;;;;;4939524;28;20626;-65
2023/03/13 10:13:47;;;;;;;7.20;2.42;;;16.80;1.00;;;;;;4945519;29;20274;-65
2023/03/13 10:16:21;;;;;;;4.40;1.90;;;16.30;1.00;;;;;;4947059;28;20310;-64
2023/03/13 10:18:53;;;;;;;5.15;2.10;;;16.00;1.00;;;;;;4959333;28;20202;-64
2023/03/13 10:21:23;;;;;;;5.65;2.20;;;16.10;1.00;;;;;;4961852;28;20199;-65
2023/03/13 10:23:59;;;;;;;3.75;1.80;;;16.10;1.00;;;;;;4928616;28;20209;-64
2023/03/13 10:26:30;;;;;;;3.38;2.15;;;16.00;1.00;;;;;;4946057;28;20277;-65
2023/03/13 10:29:15;;;;;;;3.38;1.75;;;15.70;1.00;;;;;;4946095;28;20226;-65
2023/03/13 10:31:46;;;;;;;3.92;2.00;;;16.00;1.00;;;;;;4946133;28;20301;-65
2023/03/13 10:34:14;;;;;;;5.55;2.15;;;20.00;1.00;;;;;;4946968;28;20207;-67
2023/03/13 10:36:43;;;;;;;4.57;1.70;;;21.80;1.00;;;;;;4944313;29;20710;-66
2023/03/13 10:39:19;;;;;;;6.60;2.08;;;21.00;1.00;;;;;;4943612;29;21141;-65
2023/03/13 10:41:49;;;;;;;3.22;1.77;;;18.20;1.00;;;;;;4948153;28;20737;-65
2023/03/13 10:44:21;;;;;;;6.55;2.15;;;17.50;1.00;;;;;;4949471;29;20218;-66
2023/03/13 10:46:50;;;;;;;4.90;2.10;;;17.60;1.00;;;;;;4952311;29;20305;-66
2023/03/13 10:49:18;;;;;;;4.25;2.03;;;17.30;1.00;;;;;;4948286;28;20190;-66
2023/03/13 10:51:58;;;;;;;4.25;1.70;;;18.00;1.00;;;;;;4964860;28;20761;-66
2023/03/13 10:54:35;;;;;;;5.50;1.88;;;17.00;1.00;;;;;;4950953;29;20561;-67
2023/03/13 10:57:17;;;;;;;5.90;1.83;;;17.40;1.00;;;;;;4929669;28;20257;-69
2023/03/13 10:59:49;;;;;;;3.65;1.73;;;21.10;1.00;;;;;;4946714;28;20402;-68
2023/03/13 11:02:34;;;;;;;2.70;1.55;;;23.80;1.00;;;;;;4941300;28;20301;-68
2023/03/13 11:05:22;;;;;;;1.92;1.35;;;22.20;1.00;;;;;;4946674;28;20238;-67
2023/03/13 11:07:50;;;;;;;4.15;1.42;;;20.60;1.00;;;;;;4948902;29;20758;-67
2023/03/13 11:10:20;;;;;;;3.35;1.40;;;20.20;1.00;;;;;;4962107;28;20317;-66
2023/03/13 11:12:52;;;;;;;4.50;1.40;;;19.30;1.00;;;;;;4947796;29;20207;-70
2023/03/13 11:15:43;;;;;;;2.50;1.58;;;19.20;1.00;;;;;;4943932;29;20226;-69
2023/03/13 11:18:17;;;;;;;2.72;1.10;;;18.90;1.00;;;;;;4967035;28;20203;-68
2023/03/13 11:20:46;;;;;;;2.35;1.27;;;20.60;1.00;;;;;;4966720;28;20251;-69
2023/03/13 11:23:26;;;;;;;2.42;1.40;;;22.00;1.00;;;;;;4943131;29;20302;-67
2023/03/13 11:26:15;;;;;;;2.10;1.20;;;21.50;1.00;;;;;;4949141;28;20203;-67
2023/03/13 11:29:03;;;;;;;1.65;1.23;;;23.20;1.00;;;;;;4950975;29;20703;-66
2023/03/13 11:31:45;;;;;;;2.55;1.55;;;23.10;1.00;;;;;;4948632;29;20573;-68
2023/03/13 11:34:30;;;;;;;3.75;1.52;;;21.20;1.00;;;;;;4947798;29;20282;-68
2023/03/13 11:37:14;;;;;;;3.10;1.48;;;21.30;1.00;;;;;;4950931;29;20215;-68
2023/03/13 11:40:05;;;;;;;1.95;1.27;;;20.10;1.00;;;;;;4949267;28;20825;-67
2023/03/13 11:43:16;;;;;;;5.32;1.58;;;20.30;1.00;;;;;;4943663;28;20225;-67
2023/03/13 11:46:13;;;;;;;2.65;1.25;;;19.20;1.00;;;;;;4944207;28;20207;-69
2023/03/13 11:48:59;;;;;;;1.73;1.02;;;18.90;1.00;;;;;;4951298;28;20238;-67
2023/03/13 11:51:31;;;;;;;2.38;1.30;;;18.60;1.00;;;;;;4948609;28;20274;-67
2023/03/13 11:54:23;;;;;;;3.05;1.67;;;19.10;1.00;;;;;;4951540;28;20203;-68
2023/03/13 11:57:13;;;;;;;3.70;1.05;;;19.20;1.00;;;;;;4951349;29;20301;-67
2023/03/13 11:59:40;;;;;;;3.75;1.10;;;19.50;1.00;;;;;;4951551;29;20208;-67
2023/03/13 12:02:25;;;;;;;1.85;1.05;;;19.60;1.00;;;;;;4952399;28;20706;-67
2023/03/13 12:05:00;;;;;;;2.70;1.00;;;20.20;1.00;;;;;;4947982;28;20317;-68
2023/03/13 12:07:38;;;;;;;1.60;1.15;;;19.90;1.00;;;;;;4949782;28;20209;-68
2023/03/13 12:10:26;;;;;;;1.45;0.80;;;19.50;1.00;;;;;;4949502;28;20204;-67
2023/03/13 12:13:00;;;;;;;1.85;0.90;;;19.60;1.00;;;;;;4963723;28;20817;-69
2023/03/13 12:15:42;;;;;;;1.95;1.15;;;20.40;1.00;;;;;;4949494;28;20199;-67
2023/03/13 12:18:41;;;;;;;3.35;0.90;;;20.00;1.00;;;;;;4963918;28;20238;-68
2023/03/13 12:21:11;;;;;;;2.25;1.10;;;19.20;1.00;;;;;;4949579;28;20203;-68
2023/03/13 12:23:38;;;;;;;1.33;0.85;;;19.50;1.00;;;;;;4939808;28;20619;-69
2023/03/13 12:26:24;;;;;;;3.70;1.13;;;20.00;1.00;;;;;;4947739;28;20199;-69
2023/03/13 12:29:04;;;;;;;1.30;0.80;;;20.00;1.00;;;;;;4947715;28;20213;-67
2023/03/13 12:31:41;;;;;;;1.80;1.00;;;20.30;1.00;;;;;;4940899;28;20203;-68
2023/03/13 12:34:11;;;;;;;5.55;1.10;;;20.10;1.00;;;;;;4947532;28;20222;-67
2023/03/13 12:36:41;;;;;;;2.30;0.73;;;20.20;1.00;;;;;;4947895;28;20694;-67
2023/03/13 12:39:19;;;;;;;1.08;0.90;;;20.20;1.00;;;;;;4948584;28;20577;-67
2023/03/13 12:41:56;;;;;;;1.00;0.85;;;19.70;1.00;;;;;;4946062;28;20725;-67
2023/03/13 12:44:23;;;;;;;3.00;0.93;;;19.20;1.00;;;;;;4941323;28;20202;-70
2023/03/13 12:47:07;;;;;;;2.28;0.80;;;18.80;1.00;;;;;;4965415;28;20293;-70
2023/03/13 12:50:07;;;;;;;2.35;0.90;;;19.10;1.00;;;;;;4943922;28;20198;-69
2023/03/13 12:52:43;;;;;;;1.92;1.02;;;18.90;1.00;;;;;;4945884;28;20202;-69
2023/03/13 12:55:37;;;;;;;1.10;0.90;;;19.20;1.00;;;;;;4948008;28;20211;-69
2023/03/13 12:58:43;;;;;;;2.05;0.70;;;19.60;1.00;;;;;;4947838;28;20325;-68
2023/03/13 13:01:48;;;;;;;2.60;1.00;;;19.10;1.00;;;;;;4945097;28;20203;-67
2023/03/13 13:04:20;;;;;;;2.30;0.93;;;19.10;1.00;;;;;;4945575;28;20242;-66
2023/03/13 13:06:54;;;;;;;2.42;1.13;;;19.00;1.00;;;;;;4945066;28;20195;-68
2023/03/13 13:09:26;;;;;;;3.45;1.00;;;18.90;1.00;;;;;;4940234;28;20245;-67
2023/03/13 13:12:24;;;;;;;1.27;0.68;;;19.50;1.00;;;;;;4947389;28;20821;-68
2023/03/13 13:14:51;;;;;;;1.85;0.95;;;19.40;1.00;;;;;;4930532;29;20211;-67
2023/03/13 13:17:34;;;;;;;1.48;0.90;;;19.10;1.00;;;;;;4943216;28;20317;-69
2023/03/13 13:20:34;;;;;;;0.70;0.70;;;19.10;1.00;;;;;;4946961;28;20267;-68
2023/03/13 13:23:20;;;;;;;2.03;0.90;;;18.70;1.00;;;;;;4940488;28;20195;-66
2023/03/13 13:25:48;;;;;;;1.58;0.90;;;18.50;1.00;;;;;;4946708;28;20487;-67
2023/03/13 13:28:21;;;;;;;2.05;0.90;;;18.60;1.00;;;;;;4948052;28;20286;-67
2023/03/13 13:30:49;;;;;;;3.33;0.95;;;18.70;1.00;;;;;;4946688;28;20203;-68
2023/03/13 13:33:20;;;;;;;1.35;1.00;;;18.70;1.00;;;;;;4946875;29;20698;-68